sensor_id;sensor_type;location;lat;lon;timestamp;temperature;humidity
1083;DHT22;530;51.448;7.238;2023-12-28T00:02:06;9.00;99.90
1083;DHT22;530;51.448;7.238;2023-12-28T00:04:32;8.90;99.90
1083;DHT22;530;51.448;7.238;2023-12-28T00:07:00;8.80;99.90
1083;DHT22;530;51.448;7.238;2023-12-28T00:09:25;8.90;99.90
1083;DHT22;530;51.448;7.238;2023-12-28T00:11:51;8.90;99.90
1083;DHT22;530;51.448;7.238;2023-12-28T00:14:17;8.80;99.90
1083;DHT22;530;51.448;7.238;2023-12-28T00:16:43;8.80;99.90
1083;DHT22;530;51.448;7.238;2023-12-28T00:19:08;8.80;99.90
1083;DHT22;530;51.448;7.238;2023-12-28T00:21:34;8.80;99.90
1083;DHT22;530;51.448;7.238;2023-12-28T00:24:00;8.80;99.90
1083;DHT22;530;51.448;7.238;2023-12-28T00:26:25;8.80;99.90
1083;DHT22;530;51.448;7.238;2023-12-28T00:28:51;8.80;99.90
1083;DHT22;530;51.448;7.238;2023-12-28T00:31:17;8.80;99.90
1083;DHT22;530;51.448;7.238;2023-12-28T00:33:42;8.80;99.90
1083;DHT22;530;51.448;7.238;2023-12-28T00:36:08;8.80;99.90
1083;DHT22;530;51.448;7.238;2023-12-28T00:38:34;8.80;99.90
1083;DHT22;530;51.448;7.238;2023-12-28T00:40:59;8.80;99.90
1083;DHT22;530;51.448;7.238;2023-12-28T00:43:25;8.70;99.90
1083;DHT22;530;51.448;7.238;2023-12-28T00:45:50;8.80;99.90
1083;DHT22;530;51.448;7.238;2023-12-28T00:48:16;8.80;99.90
1083;DHT22;530;51.448;7.238;2023-12-28T00:50:42;8.80;99.90
1083;DHT22;530;51.448;7.238;2023-12-28T00:53:07;8.80;99.90
1083;DHT22;530;51.448;7.238;2023-12-28T00:55:33;8.80;99.90
1083;DHT22;530;51.448;7.238;2023-12-28T00:57:59;8.80;99.90
1083;DHT22;530;51.448;7.238;2023-12-28T01:00:24;8.80;99.90
1083;DHT22;530;51.448;7.238;2023-12-28T01:02:50;8.80;99.90
1083;DHT22;530;51.448;7.238;2023-12-28T01:05:16;8.80;99.90
1083;DHT22;530;51.448;7.238;2023-12-28T01:07:42;8.80;99.90
1083;DHT22;530;51.448;7.238;2023-12-28T01:10:08;8.90;99.90
1083;DHT22;530;51.448;7.238;2023-12-28T01:12:34;8.90;99.90
1083;DHT22;530;51.448;7.238;2023-12-28T01:15:00;8.90;99.90
1083;DHT22;530;51.448;7.238;2023-12-28T01:17:25;8.90;99.90
1083;DHT22;530;51.448;7.238;2023-12-28T01:19:51;8.90;99.90
1083;DHT22;530;51.448;7.238;2023-12-28T01:22:17;9.00;99.90
1083;DHT22;530;51.448;7.238;2023-12-28T01:24:46;9.00;99.90
1083;DHT22;530;51.448;7.238;2023-12-28T01:27:12;9.00;99.90
1083;DHT22;530;51.448;7.238;2023-12-28T01:29:38;9.00;99.90
1083;DHT22;530;51.448;7.238;2023-12-28T01:32:04;9.00;99.90
1083;DHT22;530;51.448;7.238;2023-12-28T01:34:29;9.00;99.90
1083;DHT22;530;51.448;7.238;2023-12-28T01:36:55;9.10;99.90
1083;DHT22;530;51.448;7.238;2023-12-28T01:39:21;9.10;99.90
1083;DHT22;530;51.448;7.238;2023-12-28T01:41:46;9.10;99.90
1083;DHT22;530;51.448;7.238;2023-12-28T01:44:12;9.20;99.90
1083;DHT22;530;51.448;7.238;2023-12-28T01:46:38;9.20;99.90
1083;DHT22;530;51.448;7.238;2023-12-28T01:49:04;9.20;99.90
1083;DHT22;530;51.448;7.238;2023-12-28T01:51:31;9.20;99.90
1083;DHT22;530;51.448;7.238;2023-12-28T01:53:57;9.20;99.90
1083;DHT22;530;51.448;7.238;2023-12-28T01:56:23;9.20;99.90
1083;DHT22;530;51.448;7.238;2023-12-28T01:58:50;9.30;99.90
1083;DHT22;530;51.448;7.238;2023-12-28T02:01:18;9.30;99.90
1083;DHT22;530;51.448;7.238;2023-12-28T02:03:44;9.30;99.90
1083;DHT22;530;51.448;7.238;2023-12-28T02:06:10;9.30;99.90
1083;DHT22;530;51.448;7.238;2023-12-28T02:08:37;9.40;99.90
1083;DHT22;530;51.448;7.238;2023-12-28T02:11:03;9.40;99.90
1083;DHT22;530;51.448;7.238;2023-12-28T02:13:29;9.40;99.90
1083;DHT22;530;51.448;7.238;2023-12-28T02:16:03;9.40;99.90
1083;DHT22;530;51.448;7.238;2023-12-28T02:18:47;9.40;99.90
1083;DHT22;530;51.448;7.238;2023-12-28T02:21:13;9.40;99.90
1083;DHT22;530;51.448;7.238;2023-12-28T02:23:46;9.40;99.90
1083;DHT22;530;51.448;7.238;2023-12-28T02:26:12;9.40;99.90
1083;DHT22;530;51.448;7.238;2023-12-28T02:28:38;9.40;99.90
1083;DHT22;530;51.448;7.238;2023-12-28T02:31:06;9.40;99.90
1083;DHT22;530;51.448;7.238;2023-12-28T02:33:48;9.40;99.90
1083;DHT22;530;51.448;7.238;2023-12-28T02:36:18;9.50;99.90
1083;DHT22;530;51.448;7.238;2023-12-28T02:38:48;9.50;99.90
1083;DHT22;530;51.448;7.238;2023-12-28T02:41:15;9.50;99.90
1083;DHT22;530;51.448;7.238;2023-12-28T02:43:41;9.50;99.90
1083;DHT22;530;51.448;7.238;2023-12-28T02:46:06;9.50;99.90
1083;DHT22;530;51.448;7.238;2023-12-28T02:48:32;9.50;99.90
1083;DHT22;530;51.448;7.238;2023-12-28T02:50:58;9.50;99.90
1083;DHT22;530;51.448;7.238;2023-12-28T02:53:23;9.50;99.90
1083;DHT22;530;51.448;7.238;2023-12-28T02:55:49;9.50;99.90
1083;DHT22;530;51.448;7.238;2023-12-28T02:58:15;9.60;99.90
1083;DHT22;530;51.448;7.238;2023-12-28T03:00:40;9.60;99.90
1083;DHT22;530;51.448;7.238;2023-12-28T03:03:06;9.60;99.90
1083;DHT22;530;51.448;7.238;2023-12-28T03:05:32;9.60;99.90
1083;DHT22;530;51.448;7.238;2023-12-28T03:07:57;9.60;99.90
1083;DHT22;530;51.448;7.238;2023-12-28T03:10:23;9.60;99.90
1083;DHT22;530;51.448;7.238;2023-12-28T03:12:49;9.50;99.90
1083;DHT22;530;51.448;7.238;2023-12-28T03:15:15;9.50;99.90
1083;DHT22;530;51.448;7.238;2023-12-28T03:17:41;9.60;99.90
1083;DHT22;530;51.448;7.238;2023-12-28T03:20:07;9.60;99.90
1083;DHT22;530;51.448;7.238;2023-12-28T03:22:33;9.50;99.90
1083;DHT22;530;51.448;7.238;2023-12-28T03:24:59;9.50;99.90
1083;DHT22;530;51.448;7.238;2023-12-28T03:27:24;9.50;99.90
1083;DHT22;530;51.448;7.238;2023-12-28T03:29:50;9.60;99.90
1083;DHT22;530;51.448;7.238;2023-12-28T03:32:16;9.60;99.90
1083;DHT22;530;51.448;7.238;2023-12-28T03:34:41;9.60;99.90
1083;DHT22;530;51.448;7.238;2023-12-28T03:37:07;9.60;99.90
1083;DHT22;530;51.448;7.238;2023-12-28T03:39:33;9.60;99.90
1083;DHT22;530;51.448;7.238;2023-12-28T03:41:59;9.60;99.90
1083;DHT22;530;51.448;7.238;2023-12-28T03:44:25;9.60;99.90
1083;DHT22;530;51.448;7.238;2023-12-28T03:46:51;9.60;99.90
1083;DHT22;530;51.448;7.238;2023-12-28T03:49:18;9.70;99.90
1083;DHT22;530;51.448;7.238;2023-12-28T03:51:44;9.70;99.90
1083;DHT22;530;51.448;7.238;2023-12-28T03:54:10;9.60;99.90
1083;DHT22;530;51.448;7.238;2023-12-28T03:56:36;9.70;99.90
1083;DHT22;530;51.448;7.238;2023-12-28T03:59:05;9.70;99.90
1083;DHT22;530;51.448;7.238;2023-12-28T04:01:31;9.70;99.90
1083;DHT22;530;51.448;7.238;2023-12-28T04:03:57;9.70;99.90
1083;DHT22;530;51.448;7.238;2023-12-28T04:06:22;9.70;99.90
1083;DHT22;530;51.448;7.238;2023-12-28T04:08:48;9.70;99.90
1083;DHT22;530;51.448;7.238;2023-12-28T04:11:14;9.80;99.90
1083;DHT22;530;51.448;7.238;2023-12-28T04:13:40;9.80;99.90
1083;DHT22;530;51.448;7.238;2023-12-28T04:16:05;9.80;99.90
1083;DHT22;530;51.448;7.238;2023-12-28T04:18:32;9.80;99.90
1083;DHT22;530;51.448;7.238;2023-12-28T04:20:58;9.70;99.90
1083;DHT22;530;51.448;7.238;2023-12-28T04:23:24;9.80;99.90
1083;DHT22;530;51.448;7.238;2023-12-28T04:25:49;9.80;99.90
1083;DHT22;530;51.448;7.238;2023-12-28T04:28:15;9.80;99.90
1083;DHT22;530;51.448;7.238;2023-12-28T04:30:41;9.80;99.90
1083;DHT22;530;51.448;7.238;2023-12-28T04:33:06;9.70;99.90
1083;DHT22;530;51.448;7.238;2023-12-28T04:35:32;9.80;99.90
1083;DHT22;530;51.448;7.238;2023-12-28T04:37:58;9.80;99.90
1083;DHT22;530;51.448;7.238;2023-12-28T04:40:23;9.80;99.90
1083;DHT22;530;51.448;7.238;2023-12-28T04:42:49;9.80;99.90
1083;DHT22;530;51.448;7.238;2023-12-28T04:45:15;9.80;99.90
1083;DHT22;530;51.448;7.238;2023-12-28T04:47:41;9.80;99.90
1083;DHT22;530;51.448;7.238;2023-12-28T04:50:07;9.80;99.90
1083;DHT22;530;51.448;7.238;2023-12-28T04:52:33;9.80;99.90
1083;DHT22;530;51.448;7.238;2023-12-28T04:54:58;9.80;99.90
1083;DHT22;530;51.448;7.238;2023-12-28T04:57:24;9.80;99.90
1083;DHT22;530;51.448;7.238;2023-12-28T04:59:51;9.80;99.90
1083;DHT22;530;51.448;7.238;2023-12-28T05:02:17;9.80;99.90
1083;DHT22;530;51.448;7.238;2023-12-28T05:04:42;9.80;99.90
1083;DHT22;530;51.448;7.238;2023-12-28T05:07:08;9.80;99.90
1083;DHT22;530;51.448;7.238;2023-12-28T05:09:34;9.80;99.90
1083;DHT22;530;51.448;7.238;2023-12-28T05:11:59;9.90;99.90
1083;DHT22;530;51.448;7.238;2023-12-28T05:14:25;9.80;99.90
1083;DHT22;530;51.448;7.238;2023-12-28T05:16:51;9.90;99.90
1083;DHT22;530;51.448;7.238;2023-12-28T05:19:17;9.90;99.90
1083;DHT22;530;51.448;7.238;2023-12-28T05:21:42;9.90;99.90
1083;DHT22;530;51.448;7.238;2023-12-28T05:24:08;9.90;99.90
1083;DHT22;530;51.448;7.238;2023-12-28T05:26:34;9.90;99.90
1083;DHT22;530;51.448;7.238;2023-12-28T05:29:00;9.90;99.90
1083;DHT22;530;51.448;7.238;2023-12-28T05:31:26;9.90;99.90
1083;DHT22;530;51.448;7.238;2023-12-28T05:33:51;9.90;99.90
1083;DHT22;530;51.448;7.238;2023-12-28T05:36:17;9.90;99.90
1083;DHT22;530;51.448;7.238;2023-12-28T05:38:42;9.90;99.90
1083;DHT22;530;51.448;7.238;2023-12-28T05:41:11;9.90;99.90
1083;DHT22;530;51.448;7.238;2023-12-28T05:43:37;9.90;99.90
1083;DHT22;530;51.448;7.238;2023-12-28T05:46:04;9.90;99.90
1083;DHT22;530;51.448;7.238;2023-12-28T05:48:29;9.90;99.90
1083;DHT22;530;51.448;7.238;2023-12-28T05:50:57;9.90;99.90
1083;DHT22;530;51.448;7.238;2023-12-28T05:53:24;9.90;99.90
1083;DHT22;530;51.448;7.238;2023-12-28T05:55:49;9.90;99.90
1083;DHT22;530;51.448;7.238;2023-12-28T05:58:15;9.90;99.90
1083;DHT22;530;51.448;7.238;2023-12-28T06:00:41;9.90;99.90
1083;DHT22;530;51.448;7.238;2023-12-28T06:03:07;9.90;99.90
1083;DHT22;530;51.448;7.238;2023-12-28T06:05:33;9.90;99.90
1083;DHT22;530;51.448;7.238;2023-12-28T06:07:59;9.90;99.90
1083;DHT22;530;51.448;7.238;2023-12-28T06:10:24;9.90;99.90
1083;DHT22;530;51.448;7.238;2023-12-28T06:12:50;9.90;99.90
1083;DHT22;530;51.448;7.238;2023-12-28T06:15:16;9.90;99.90
1083;DHT22;530;51.448;7.238;2023-12-28T06:17:42;9.90;99.90
1083;DHT22;530;51.448;7.238;2023-12-28T06:20:08;9.90;99.90
1083;DHT22;530;51.448;7.238;2023-12-28T06:22:38;9.90;99.90
1083;DHT22;530;51.448;7.238;2023-12-28T06:25:04;9.90;99.90
1083;DHT22;530;51.448;7.238;2023-12-28T06:27:30;9.90;99.90
1083;DHT22;530;51.448;7.238;2023-12-28T06:29:56;9.90;99.90
1083;DHT22;530;51.448;7.238;2023-12-28T06:32:21;9.90;99.90
1083;DHT22;530;51.448;7.238;2023-12-28T06:34:47;10.00;99.90
1083;DHT22;530;51.448;7.238;2023-12-28T06:37:14;9.90;99.90
1083;DHT22;530;51.448;7.238;2023-12-28T06:39:40;9.90;99.90
1083;DHT22;530;51.448;7.238;2023-12-28T06:42:06;9.90;99.90
1083;DHT22;530;51.448;7.238;2023-12-28T06:44:32;9.90;99.90
1083;DHT22;530;51.448;7.238;2023-12-28T06:46:57;9.90;99.90
1083;DHT22;530;51.448;7.238;2023-12-28T06:49:24;9.90;99.90
1083;DHT22;530;51.448;7.238;2023-12-28T06:51:50;9.90;99.90
1083;DHT22;530;51.448;7.238;2023-12-28T06:54:16;9.90;99.90
1083;DHT22;530;51.448;7.238;2023-12-28T06:56:42;9.90;99.90
1083;DHT22;530;51.448;7.238;2023-12-28T06:59:08;9.90;99.90
1083;DHT22;530;51.448;7.238;2023-12-28T07:01:40;9.90;99.90
1083;DHT22;530;51.448;7.238;2023-12-28T07:04:06;9.90;99.90
1083;DHT22;530;51.448;7.238;2023-12-28T07:06:32;9.90;99.90
1083;DHT22;530;51.448;7.238;2023-12-28T07:08:58;9.90;99.90
1083;DHT22;530;51.448;7.238;2023-12-28T07:11:24;9.80;99.90
1083;DHT22;530;51.448;7.238;2023-12-28T07:13:49;9.80;99.90
1083;DHT22;530;51.448;7.238;2023-12-28T07:16:15;9.80;99.90
1083;DHT22;530;51.448;7.238;2023-12-28T07:18:41;9.80;99.90
1083;DHT22;530;51.448;7.238;2023-12-28T07:21:07;9.80;99.90
1083;DHT22;530;51.448;7.238;2023-12-28T07:23:35;9.80;99.90
1083;DHT22;530;51.448;7.238;2023-12-28T07:26:01;9.80;99.90
1083;DHT22;530;51.448;7.238;2023-12-28T07:28:27;9.90;99.90
1083;DHT22;530;51.448;7.238;2023-12-28T07:30:53;9.80;99.90
1083;DHT22;530;51.448;7.238;2023-12-28T07:33:19;9.80;99.90
1083;DHT22;530;51.448;7.238;2023-12-28T07:35:46;9.80;99.90
1083;DHT22;530;51.448;7.238;2023-12-28T07:38:11;9.80;99.90
1083;DHT22;530;51.448;7.238;2023-12-28T07:40:37;9.80;99.90
1083;DHT22;530;51.448;7.238;2023-12-28T07:43:03;9.80;99.90
1083;DHT22;530;51.448;7.238;2023-12-28T07:45:29;9.80;99.90
1083;DHT22;530;51.448;7.238;2023-12-28T07:47:55;9.80;99.90
1083;DHT22;530;51.448;7.238;2023-12-28T07:50:21;9.80;99.90
1083;DHT22;530;51.448;7.238;2023-12-28T07:52:47;9.80;99.90
1083;DHT22;530;51.448;7.238;2023-12-28T07:55:13;9.80;99.90
1083;DHT22;530;51.448;7.238;2023-12-28T07:57:39;9.80;99.90
1083;DHT22;530;51.448;7.238;2023-12-28T08:00:07;9.80;99.90
1083;DHT22;530;51.448;7.238;2023-12-28T08:02:33;9.80;99.90
1083;DHT22;530;51.448;7.238;2023-12-28T08:04:59;9.90;99.90
1083;DHT22;530;51.448;7.238;2023-12-28T08:07:25;9.90;99.90
1083;DHT22;530;51.448;7.238;2023-12-28T08:09:51;9.90;99.90
1083;DHT22;530;51.448;7.238;2023-12-28T08:12:16;9.90;99.90
1083;DHT22;530;51.448;7.238;2023-12-28T08:14:46;9.90;99.90
1083;DHT22;530;51.448;7.238;2023-12-28T08:17:12;10.00;99.90
1083;DHT22;530;51.448;7.238;2023-12-28T08:19:38;9.90;99.90
1083;DHT22;530;51.448;7.238;2023-12-28T08:22:03;9.90;99.90
1083;DHT22;530;51.448;7.238;2023-12-28T08:24:29;10.00;99.90
1083;DHT22;530;51.448;7.238;2023-12-28T08:26:55;10.00;99.90
1083;DHT22;530;51.448;7.238;2023-12-28T08:29:25;9.90;99.90
1083;DHT22;530;51.448;7.238;2023-12-28T08:31:50;10.00;99.90
1083;DHT22;530;51.448;7.238;2023-12-28T08:34:16;10.00;99.90
1083;DHT22;530;51.448;7.238;2023-12-28T08:36:42;10.00;99.90
1083;DHT22;530;51.448;7.238;2023-12-28T08:39:07;10.00;99.90
1083;DHT22;530;51.448;7.238;2023-12-28T08:41:33;10.00;99.90
1083;DHT22;530;51.448;7.238;2023-12-28T08:43:59;10.00;99.90
1083;DHT22;530;51.448;7.238;2023-12-28T08:46:25;10.00;99.90
1083;DHT22;530;51.448;7.238;2023-12-28T08:48:51;10.00;99.90
1083;DHT22;530;51.448;7.238;2023-12-28T08:51:17;10.00;99.90
1083;DHT22;530;51.448;7.238;2023-12-28T08:53:42;10.00;99.90
1083;DHT22;530;51.448;7.238;2023-12-28T08:56:19;10.00;99.90
1083;DHT22;530;51.448;7.238;2023-12-28T08:58:46;10.10;99.90
1083;DHT22;530;51.448;7.238;2023-12-28T09:01:17;10.10;99.90
1083;DHT22;530;51.448;7.238;2023-12-28T09:03:43;10.10;99.90
1083;DHT22;530;51.448;7.238;2023-12-28T09:06:08;10.10;99.90
1083;DHT22;530;51.448;7.238;2023-12-28T09:08:34;10.10;99.90
1083;DHT22;530;51.448;7.238;2023-12-28T09:11:00;10.10;99.90
1083;DHT22;530;51.448;7.238;2023-12-28T09:13:26;10.10;99.90
1083;DHT22;530;51.448;7.238;2023-12-28T09:15:51;10.10;99.90
1083;DHT22;530;51.448;7.238;2023-12-28T09:18:17;10.10;99.90
1083;DHT22;530;51.448;7.238;2023-12-28T09:20:43;10.10;99.90
1083;DHT22;530;51.448;7.238;2023-12-28T09:23:09;10.10;99.90
1083;DHT22;530;51.448;7.238;2023-12-28T09:25:36;10.10;99.90
1083;DHT22;530;51.448;7.238;2023-12-28T09:28:04;10.10;99.90
1083;DHT22;530;51.448;7.238;2023-12-28T09:30:30;10.10;99.90
1083;DHT22;530;51.448;7.238;2023-12-28T09:32:56;10.10;99.90
1083;DHT22;530;51.448;7.238;2023-12-28T09:35:22;10.20;99.90
1083;DHT22;530;51.448;7.238;2023-12-28T09:37:48;10.20;99.90
1083;DHT22;530;51.448;7.238;2023-12-28T09:40:14;10.10;99.90
1083;DHT22;530;51.448;7.238;2023-12-28T09:45:31;10.20;99.90
1083;DHT22;530;51.448;7.238;2023-12-28T09:47:56;10.20;99.90
1083;DHT22;530;51.448;7.238;2023-12-28T09:50:22;10.20;99.90
1083;DHT22;530;51.448;7.238;2023-12-28T09:52:52;10.20;99.90
1083;DHT22;530;51.448;7.238;2023-12-28T09:55:18;10.20;99.90
1083;DHT22;530;51.448;7.238;2023-12-28T09:57:45;10.20;99.90
1083;DHT22;530;51.448;7.238;2023-12-28T10:00:12;10.20;99.90
1083;DHT22;530;51.448;7.238;2023-12-28T10:02:40;10.20;99.90
1083;DHT22;530;51.448;7.238;2023-12-28T10:05:06;10.20;99.90
1083;DHT22;530;51.448;7.238;2023-12-28T10:07:32;10.20;99.90
1083;DHT22;530;51.448;7.238;2023-12-28T10:09:58;10.30;99.90
1083;DHT22;530;51.448;7.238;2023-12-28T10:12:25;10.20;99.90
1083;DHT22;530;51.448;7.238;2023-12-28T10:14:53;10.20;99.90
1083;DHT22;530;51.448;7.238;2023-12-28T10:17:19;10.20;99.90
1083;DHT22;530;51.448;7.238;2023-12-28T10:19:45;10.30;99.90
1083;DHT22;530;51.448;7.238;2023-12-28T10:22:13;10.30;99.90
1083;DHT22;530;51.448;7.238;2023-12-28T10:24:43;10.30;99.90
1083;DHT22;530;51.448;7.238;2023-12-28T10:27:09;10.30;99.90
1083;DHT22;530;51.448;7.238;2023-12-28T10:29:36;10.30;99.90
1083;DHT22;530;51.448;7.238;2023-12-28T10:32:02;10.30;99.90
1083;DHT22;530;51.448;7.238;2023-12-28T10:34:27;10.40;99.90
1083;DHT22;530;51.448;7.238;2023-12-28T10:36:53;10.50;99.90
1083;DHT22;530;51.448;7.238;2023-12-28T10:39:20;10.50;99.90
1083;DHT22;530;51.448;7.238;2023-12-28T10:41:49;10.60;99.90
1083;DHT22;530;51.448;7.238;2023-12-28T10:44:19;10.70;99.90
1083;DHT22;530;51.448;7.238;2023-12-28T10:46:47;10.70;99.90
1083;DHT22;530;51.448;7.238;2023-12-28T10:49:17;10.80;99.90
1083;DHT22;530;51.448;7.238;2023-12-28T10:51:44;10.80;99.90
1083;DHT22;530;51.448;7.238;2023-12-28T11:00:14;10.70;99.90
1083;DHT22;530;51.448;7.238;2023-12-28T11:02:45;10.70;99.90
1083;DHT22;530;51.448;7.238;2023-12-28T11:05:15;10.70;99.90
1083;DHT22;530;51.448;7.238;2023-12-28T11:07:43;10.70;99.90
1083;DHT22;530;51.448;7.238;2023-12-28T11:10:09;10.70;99.90
1083;DHT22;530;51.448;7.238;2023-12-28T11:12:37;10.70;99.90
1083;DHT22;530;51.448;7.238;2023-12-28T11:15:05;10.70;99.90
1083;DHT22;530;51.448;7.238;2023-12-28T11:17:31;10.70;99.90
1083;DHT22;530;51.448;7.238;2023-12-28T11:19:58;10.70;99.90
1083;DHT22;530;51.448;7.238;2023-12-28T11:22:25;10.80;99.90
1083;DHT22;530;51.448;7.238;2023-12-28T11:24:54;10.90;99.90
1083;DHT22;530;51.448;7.238;2023-12-28T11:27:20;10.80;99.90
1083;DHT22;530;51.448;7.238;2023-12-28T11:29:48;10.80;99.90
1083;DHT22;530;51.448;7.238;2023-12-28T11:32:13;10.90;99.90
1083;DHT22;530;51.448;7.238;2023-12-28T11:34:39;10.80;99.90
1083;DHT22;530;51.448;7.238;2023-12-28T11:37:12;10.80;99.90
1083;DHT22;530;51.448;7.238;2023-12-28T11:39:41;10.80;99.90
1083;DHT22;530;51.448;7.238;2023-12-28T11:42:10;10.80;99.90
1083;DHT22;530;51.448;7.238;2023-12-28T11:44:42;10.90;99.90
1083;DHT22;530;51.448;7.238;2023-12-28T11:49:39;11.00;99.90
1083;DHT22;530;51.448;7.238;2023-12-28T11:52:08;11.20;99.90
1083;DHT22;530;51.448;7.238;2023-12-28T11:54:35;11.20;99.90
1083;DHT22;530;51.448;7.238;2023-12-28T11:57:01;11.20;99.90
1083;DHT22;530;51.448;7.238;2023-12-28T11:59:27;11.30;99.90
1083;DHT22;530;51.448;7.238;2023-12-28T12:01:53;11.30;99.90
1083;DHT22;530;51.448;7.238;2023-12-28T12:04:19;11.20;99.90
1083;DHT22;530;51.448;7.238;2023-12-28T12:06:46;11.20;99.90
1083;DHT22;530;51.448;7.238;2023-12-28T12:09:12;11.20;99.90
1083;DHT22;530;51.448;7.238;2023-12-28T12:11:38;11.10;99.90
1083;DHT22;530;51.448;7.238;2023-12-28T12:14:08;11.10;99.90
1083;DHT22;530;51.448;7.238;2023-12-28T12:16:35;11.10;99.90
1083;DHT22;530;51.448;7.238;2023-12-28T12:19:05;11.10;99.90
1083;DHT22;530;51.448;7.238;2023-12-28T12:21:35;11.10;99.90
1083;DHT22;530;51.448;7.238;2023-12-28T12:24:01;11.10;99.90
1083;DHT22;530;51.448;7.238;2023-12-28T12:26:30;11.10;99.90
1083;DHT22;530;51.448;7.238;2023-12-28T12:28:57;11.10;99.90
1083;DHT22;530;51.448;7.238;2023-12-28T12:31:25;11.10;99.90
1083;DHT22;530;51.448;7.238;2023-12-28T12:33:51;11.10;99.90
1083;DHT22;530;51.448;7.238;2023-12-28T12:36:17;11.10;99.90
1083;DHT22;530;51.448;7.238;2023-12-28T12:38:43;11.20;99.90
1083;DHT22;530;51.448;7.238;2023-12-28T12:41:10;11.20;99.90
1083;DHT22;530;51.448;7.238;2023-12-28T12:43:37;11.20;99.90
1083;DHT22;530;51.448;7.238;2023-12-28T12:46:04;11.20;99.90
1083;DHT22;530;51.448;7.238;2023-12-28T12:48:29;11.20;99.90
1083;DHT22;530;51.448;7.238;2023-12-28T12:50:55;11.20;99.90
1083;DHT22;530;51.448;7.238;2023-12-28T12:53:21;11.20;99.90
1083;DHT22;530;51.448;7.238;2023-12-28T12:55:47;11.20;99.90
1083;DHT22;530;51.448;7.238;2023-12-28T12:58:14;11.20;99.90
1083;DHT22;530;51.448;7.238;2023-12-28T13:00:42;11.20;99.90
1083;DHT22;530;51.448;7.238;2023-12-28T13:03:08;11.20;99.90
1083;DHT22;530;51.448;7.238;2023-12-28T13:05:37;11.20;99.90
1083;DHT22;530;51.448;7.238;2023-12-28T13:08:04;11.20;99.90
1083;DHT22;530;51.448;7.238;2023-12-28T13:10:30;11.20;99.90
1083;DHT22;530;51.448;7.238;2023-12-28T13:12:56;11.20;99.90
1083;DHT22;530;51.448;7.238;2023-12-28T13:15:22;11.20;99.90
1083;DHT22;530;51.448;7.238;2023-12-28T13:17:47;11.20;99.90
1083;DHT22;530;51.448;7.238;2023-12-28T13:20:13;11.20;99.90
1083;DHT22;530;51.448;7.238;2023-12-28T13:22:39;11.10;99.90
1083;DHT22;530;51.448;7.238;2023-12-28T13:25:06;11.20;99.90
1083;DHT22;530;51.448;7.238;2023-12-28T13:27:31;11.10;99.90
1083;DHT22;530;51.448;7.238;2023-12-28T13:29:57;11.10;99.90
1083;DHT22;530;51.448;7.238;2023-12-28T13:32:23;11.10;99.90
1083;DHT22;530;51.448;7.238;2023-12-28T13:34:49;11.10;99.90
1083;DHT22;530;51.448;7.238;2023-12-28T13:37:18;11.10;99.90
1083;DHT22;530;51.448;7.238;2023-12-28T13:39:44;11.10;99.90
1083;DHT22;530;51.448;7.238;2023-12-28T13:42:09;11.10;99.90
1083;DHT22;530;51.448;7.238;2023-12-28T13:44:35;11.10;99.90
1083;DHT22;530;51.448;7.238;2023-12-28T13:47:02;11.10;99.90
1083;DHT22;530;51.448;7.238;2023-12-28T13:49:28;11.10;99.90
1083;DHT22;530;51.448;7.238;2023-12-28T13:51:55;11.10;99.90
1083;DHT22;530;51.448;7.238;2023-12-28T13:54:20;11.10;99.90
1083;DHT22;530;51.448;7.238;2023-12-28T13:56:46;11.10;99.90
1083;DHT22;530;51.448;7.238;2023-12-28T13:59:13;11.10;99.90
1083;DHT22;530;51.448;7.238;2023-12-28T14:01:39;11.10;99.90
1083;DHT22;530;51.448;7.238;2023-12-28T14:04:05;11.10;99.90
1083;DHT22;530;51.448;7.238;2023-12-28T14:06:31;11.00;99.90
1083;DHT22;530;51.448;7.238;2023-12-28T14:08:57;11.00;99.90
1083;DHT22;530;51.448;7.238;2023-12-28T14:11:23;11.10;99.90
1083;DHT22;530;51.448;7.238;2023-12-28T14:13:49;11.00;99.90
1083;DHT22;530;51.448;7.238;2023-12-28T14:16:15;11.00;99.90
1083;DHT22;530;51.448;7.238;2023-12-28T14:18:40;11.00;99.90
1083;DHT22;530;51.448;7.238;2023-12-28T14:21:10;11.00;99.90
1083;DHT22;530;51.448;7.238;2023-12-28T14:23:38;11.00;99.90
1083;DHT22;530;51.448;7.238;2023-12-28T14:26:11;11.00;99.90
1083;DHT22;530;51.448;7.238;2023-12-28T14:28:37;11.00;99.90
1083;DHT22;530;51.448;7.238;2023-12-28T14:31:03;10.90;99.90
1083;DHT22;530;51.448;7.238;2023-12-28T14:33:29;10.90;99.90
1083;DHT22;530;51.448;7.238;2023-12-28T14:35:58;10.90;99.90
1083;DHT22;530;51.448;7.238;2023-12-28T14:38:25;10.90;99.90
1083;DHT22;530;51.448;7.238;2023-12-28T14:40:51;10.90;99.90
1083;DHT22;530;51.448;7.238;2023-12-28T14:43:17;10.90;99.90
1083;DHT22;530;51.448;7.238;2023-12-28T14:45:43;10.90;99.90
1083;DHT22;530;51.448;7.238;2023-12-28T14:48:10;10.90;99.90
1083;DHT22;530;51.448;7.238;2023-12-28T14:50:35;10.90;99.90
1083;DHT22;530;51.448;7.238;2023-12-28T14:53:01;10.90;99.90
1083;DHT22;530;51.448;7.238;2023-12-28T14:55:27;10.90;99.90
1083;DHT22;530;51.448;7.238;2023-12-28T14:57:53;10.90;99.90
1083;DHT22;530;51.448;7.238;2023-12-28T15:00:19;10.80;99.90
1083;DHT22;530;51.448;7.238;2023-12-28T15:02:45;10.80;99.90
1083;DHT22;530;51.448;7.238;2023-12-28T15:05:10;10.90;99.90
1083;DHT22;530;51.448;7.238;2023-12-28T15:07:38;10.90;99.90
1083;DHT22;530;51.448;7.238;2023-12-28T15:10:04;10.80;99.90
1083;DHT22;530;51.448;7.238;2023-12-28T15:12:30;10.80;99.90
1083;DHT22;530;51.448;7.238;2023-12-28T15:14:56;10.80;99.90
1083;DHT22;530;51.448;7.238;2023-12-28T15:17:23;10.70;99.90
1083;DHT22;530;51.448;7.238;2023-12-28T15:19:49;10.80;99.90
1083;DHT22;530;51.448;7.238;2023-12-28T15:22:15;10.70;99.90
1083;DHT22;530;51.448;7.238;2023-12-28T15:24:41;10.70;99.90
1083;DHT22;530;51.448;7.238;2023-12-28T15:27:07;10.70;99.90
1083;DHT22;530;51.448;7.238;2023-12-28T15:29:33;10.70;99.90
1083;DHT22;530;51.448;7.238;2023-12-28T15:31:59;10.70;99.90
1083;DHT22;530;51.448;7.238;2023-12-28T15:34:24;10.70;99.90
1083;DHT22;530;51.448;7.238;2023-12-28T15:36:50;10.70;99.90
1083;DHT22;530;51.448;7.238;2023-12-28T15:39:16;10.70;99.90
1083;DHT22;530;51.448;7.238;2023-12-28T15:41:41;10.70;99.90
1083;DHT22;530;51.448;7.238;2023-12-28T15:44:08;10.60;99.90
1083;DHT22;530;51.448;7.238;2023-12-28T15:46:34;10.70;99.90
1083;DHT22;530;51.448;7.238;2023-12-28T15:49:01;10.60;99.90
1083;DHT22;530;51.448;7.238;2023-12-28T15:51:26;10.60;99.90
1083;DHT22;530;51.448;7.238;2023-12-28T15:53:52;10.60;99.90
1083;DHT22;530;51.448;7.238;2023-12-28T15:56:18;10.60;99.90
1083;DHT22;530;51.448;7.238;2023-12-28T15:58:43;10.60;99.90
1083;DHT22;530;51.448;7.238;2023-12-28T16:01:09;10.60;99.90
1083;DHT22;530;51.448;7.238;2023-12-28T16:03:35;10.60;99.90
1083;DHT22;530;51.448;7.238;2023-12-28T16:06:00;10.50;99.90
1083;DHT22;530;51.448;7.238;2023-12-28T16:08:27;10.60;99.90
1083;DHT22;530;51.448;7.238;2023-12-28T16:10:53;10.60;99.90
1083;DHT22;530;51.448;7.238;2023-12-28T16:13:18;10.60;99.90
1083;DHT22;530;51.448;7.238;2023-12-28T16:15:44;10.60;99.90
1083;DHT22;530;51.448;7.238;2023-12-28T16:18:11;10.60;99.90
1083;DHT22;530;51.448;7.238;2023-12-28T16:20:37;10.60;99.90
1083;DHT22;530;51.448;7.238;2023-12-28T16:23:03;10.60;99.90
1083;DHT22;530;51.448;7.238;2023-12-28T16:25:29;10.60;99.90
1083;DHT22;530;51.448;7.238;2023-12-28T16:27:54;10.60;99.90
1083;DHT22;530;51.448;7.238;2023-12-28T16:30:20;10.60;99.90
1083;DHT22;530;51.448;7.238;2023-12-28T16:32:46;10.60;99.90